9NC9 weather

Meylor Field
Greensboro, North Carolina, United States

Public forecast

Using degrees Fahrenheit for public forecast. Weather courtesy of forecast.io.

METAR (pilot weather report)

Closest report is Piedmont Triad International Airport, 7.0 nm (13.1 km) SSW. Retrieved 2019/07/20 15:54 UTC (1 hour ago):

KGSO 201554Z 04007KT 020V080 10SM SCT050TCU SCT080 34/22 A3004 RMK AO2 SLP156 TCU S-W T03390222

TAF (pilot weather forecast)

Closest forecast is Piedmont Triad International Airport, 7.0 nm (13.1 km) SSW. Retrieved 2019/07/20 12:24 UTC (5 hours ago):

TAF KGSO 201122Z 2012/2112 25004KT P6SM SCT060 BKN200